TimeEST,TemperatureF,Dew PointF,Humidity,Sea Level PressureIn,VisibilityMPH,Wind Direction,Wind SpeedMPH,Gust SpeedMPH,PrecipitationIn,Events,Conditions,WindDirDegrees,DateUTC
12:50 AM,28.4,-25.6,9,-9999,90.0,West,20.7,-,N/A,,Scattered Clouds,280,2012-11-19 05:50:00
1:50 AM,28.4,-22.0,10,-9999,90.0,West,17.3,-,N/A,,Partly Cloudy,280,2012-11-19 06:50:00
2:49 AM,30.2,-14.8,14,-9999,90.0,West,18.4,-,N/A,,Partly Cloudy,280,2012-11-19 07:49:00
3:53 AM,30.2,-16.6,13,-9999,90.0,West,15.0,-,N/A,,Partly Cloudy,280,2012-11-19 08:53:00
4:49 AM,32.0,-9.4,17,-9999,90.0,West,12.7,-,N/A,,Partly Cloudy,270,2012-11-19 09:49:00
5:51 AM,32.0,-4.0,21,-9999,90.0,West,12.7,-,N/A,,Partly Cloudy,270,2012-11-19 10:51:00
6:53 AM,32.0,-13.0,14,-9999,90.0,West,11.5,-,N/A,,Scattered Clouds,260,2012-11-19 11:53:00
7:56 AM,30.2,-7.6,19,-9999,90.0,West,13.8,-,N/A,,Scattered Clouds,260,2012-11-19 12:56:00
8:53 AM,33.8,-7.6,17,-9999,90.0,West,11.5,-,N/A,,Partly Cloudy,260,2012-11-19 13:53:00
9:53 AM,35.6,-18.4,9,-9999,90.0,SW,8.1,-,N/A,,Partly Cloudy,230,2012-11-19 14:53:00
10:53 AM,33.8,-11.2,14,-9999,90.0,SW,12.7,-,N/A,,Partly Cloudy,230,2012-11-19 15:53:00
11:54 AM,33.8,-20.2,9,-9999,90.0,WSW,16.1,-,N/A,,Partly Cloudy,240,2012-11-19 16:54:00
12:52 PM,33.8,-16.6,11,-9999,90.0,WSW,18.4,-,N/A,,Partly Cloudy,250,2012-11-19 17:52:00
1:49 PM,30.2,-22.0,10,-9999,90.0,West,17.3,-,N/A,,Partly Cloudy,270,2012-11-19 18:49:00
2:53 PM,30.2,-16.6,13,-9999,90.0,West,20.7,-,N/A,,Partly Cloudy,280,2012-11-19 19:53:00
3:48 PM,30.2,-7.6,19,-9999,90.0,West,21.9,-,N/A,,Partly Cloudy,280,2012-11-19 20:48:00
4:51 PM,30.2,-20.2,10,-9999,90.0,WNW,21.9,-,N/A,,Partly Cloudy,290,2012-11-19 21:51:00
5:48 PM,30.2,-27.4,7,-9999,90.0,WNW,23.0,-,N/A,,Partly Cloudy,290,2012-11-19 22:48:00
6:51 PM,28.4,-18.4,12,-9999,90.0,WNW,20.7,-,N/A,,Partly Cloudy,300,2012-11-19 23:51:00
7:49 PM,28.4,-14.8,15,-9999,90.0,WNW,21.9,-,N/A,,Partly Cloudy,300,2012-11-20 00:49:00
8:51 PM,30.2,-25.6,8,-9999,90.0,WNW,20.7,-,N/A,,Clear,300,2012-11-20 01:51:00
9:50 PM,30.2,-23.8,9,-9999,90.0,WNW,19.6,-,N/A,,Partly Cloudy,300,2012-11-20 02:50:00
10:49 PM,32.0,-14.8,13,-9999,90.0,WNW,18.4,-,N/A,,Partly Cloudy,300,2012-11-20 03:49:00
11:50 PM,32.0,-9.4,17,-9999,90.0,WNW,19.6,-,N/A,,Partly Cloudy,300,2012-11-20 04:50:00